Time;durP1;ratioP1;P1;durP2;ratioP2;P2;SDS_P1;SDS_P2;PMS_P1;PMS_P2;Temp;Humidity;BMP_temperature;BMP_pressure;BME280_temperature;BME280_humidity;BME280_pressure;Samples;Min_cycle;Max_cycle;Signal;HPM_P1;HPM_P2
2022/11/16 00:00:20;;;;;;;12.50;6.72;;;11.00;99.90;;;;;;5135342;27;20135;-80
2022/11/16 00:02:47;;;;;;;15.48;6.50;;;11.00;99.90;;;;;;5116722;27;20089;-78
2022/11/16 00:05:13;;;;;;;13.02;6.80;;;10.90;99.90;;;;;;5135125;27;20047;-77
2022/11/16 00:07:39;;;;;;;13.27;6.78;;;11.00;99.90;;;;;;5135093;27;20070;-76
2022/11/16 00:10:05;;;;;;;13.93;6.38;;;11.00;99.90;;;;;;5116942;27;20039;-74
2022/11/16 00:12:31;;;;;;;13.63;6.40;;;11.00;99.90;;;;;;5135684;27;20126;-77
2022/11/16 00:14:57;;;;;;;13.52;6.88;;;10.90;99.90;;;;;;5136050;27;20381;-77
2022/11/16 00:17:22;;;;;;;13.18;6.32;;;11.00;99.90;;;;;;5100203;27;20047;-77
2022/11/16 00:19:48;;;;;;;14.85;7.13;;;11.00;99.90;;;;;;5134924;27;20079;-76
2022/11/16 00:22:14;;;;;;;11.90;7.07;;;10.90;99.90;;;;;;5135496;27;20047;-77
2022/11/16 00:24:39;;;;;;;15.82;6.78;;;10.90;99.90;;;;;;5113864;28;20471;-76
2022/11/16 00:27:05;;;;;;;16.75;7.82;;;11.00;99.90;;;;;;5114844;28;20090;-75
2022/11/16 00:29:31;;;;;;;12.60;6.85;;;11.00;99.90;;;;;;5114720;28;20055;-75
2022/11/16 00:31:56;;;;;;;15.23;6.40;;;11.00;99.90;;;;;;5114127;28;20050;-75
2022/11/16 00:34:23;;;;;;;16.05;7.25;;;11.00;99.90;;;;;;5112914;28;20511;-77
2022/11/16 00:36:49;;;;;;;14.85;7.68;;;11.00;99.90;;;;;;5114340;28;20126;-76
2022/11/16 00:39:16;;;;;;;13.87;6.90;;;11.00;99.90;;;;;;5112812;28;20050;-78
2022/11/16 00:41:42;;;;;;;14.05;7.68;;;10.90;99.90;;;;;;5095542;28;20104;-76
2022/11/16 00:44:08;;;;;;;15.65;7.50;;;10.90;99.90;;;;;;5112432;28;20101;-77
2022/11/16 00:46:34;;;;;;;14.77;7.57;;;10.90;99.90;;;;;;5112945;28;20411;-77
2022/11/16 00:49:00;;;;;;;15.05;8.05;;;10.90;99.90;;;;;;5113636;28;20063;-78
2022/11/16 00:51:26;;;;;;;15.35;7.22;;;10.80;99.90;;;;;;5111908;28;20044;-76
2022/11/16 00:53:52;;;;;;;13.60;7.13;;;10.90;99.90;;;;;;5113317;28;20043;-74
2022/11/16 00:56:18;;;;;;;16.08;7.45;;;11.00;99.90;;;;;;5096024;28;20050;-77
2022/11/16 00:58:43;;;;;;;14.30;7.15;;;11.00;99.90;;;;;;5094896;28;20495;-78
2022/11/16 01:01:10;;;;;;;16.33;7.85;;;11.10;99.90;;;;;;5111692;28;20036;-78
2022/11/16 01:03:36;;;;;;;18.25;7.75;;;11.10;99.90;;;;;;5112394;28;20043;-77
2022/11/16 01:06:08;;;;;;;15.18;7.70;;;11.10;99.90;;;;;;5112091;28;20047;-79
2022/11/16 01:08:35;;;;;;;14.30;7.60;;;11.10;99.90;;;;;;5113197;28;20047;-74
2022/11/16 01:13:46;;;;;;;16.02;8.25;;;11.10;99.90;;;;;;5112711;28;20083;-77
2022/11/16 01:16:14;;;;;;;15.15;7.65;;;11.10;99.90;;;;;;5112342;28;20054;-75
2022/11/16 01:18:40;;;;;;;16.20;8.80;;;11.10;99.90;;;;;;5113069;28;20039;-75
2022/11/16 01:21:06;;;;;;;15.15;7.50;;;11.10;99.90;;;;;;5111577;28;20043;-78
2022/11/16 01:23:32;;;;;;;15.02;7.88;;;11.10;99.90;;;;;;5112085;28;20067;-76
2022/11/16 01:26:00;;;;;;;16.40;8.73;;;11.20;99.90;;;;;;5128881;28;20056;-75
2022/11/16 01:28:30;;;;;;;17.85;8.55;;;11.10;99.90;;;;;;5113469;28;20120;-76
2022/11/16 01:30:56;;;;;;;20.95;8.30;;;11.10;99.90;;;;;;5113276;28;20040;-77
2022/11/16 01:33:21;;;;;;;16.33;8.80;;;11.10;99.90;;;;;;5116329;28;20050;-74
2022/11/16 01:35:47;;;;;;;18.40;8.40;;;11.20;99.90;;;;;;5116278;28;20043;-74
2022/11/16 01:38:13;;;;;;;15.55;8.27;;;11.10;99.90;;;;;;5116048;28;20132;-73
2022/11/16 01:40:39;;;;;;;17.33;8.80;;;11.00;99.90;;;;;;5116130;28;20452;-73
2022/11/16 01:43:19;;;;;;;18.02;9.00;;;11.00;99.90;;;;;;5116181;28;20051;-74
2022/11/16 01:45:45;;;;;;;16.13;8.15;;;11.00;99.90;;;;;;5116356;28;20054;-76
2022/11/16 01:48:19;;;;;;;17.23;8.05;;;11.00;99.90;;;;;;5117653;28;20039;-75
2022/11/16 01:50:46;;;;;;;17.10;7.80;;;11.10;99.90;;;;;;5115852;28;20047;-76
2022/11/16 01:53:13;;;;;;;16.67;8.52;;;11.10;99.90;;;;;;5117063;27;20089;-75
2022/11/16 01:55:41;;;;;;;17.35;8.20;;;11.10;99.90;;;;;;5116802;28;20145;-75
2022/11/16 01:58:07;;;;;;;16.70;8.18;;;11.10;99.90;;;;;;5117642;28;20049;-74
2022/11/16 02:00:33;;;;;;;15.88;7.95;;;11.10;99.90;;;;;;5115734;28;20046;-75
2022/11/16 02:02:59;;;;;;;17.23;8.40;;;11.10;99.90;;;;;;5116241;28;20044;-74
2022/11/16 02:05:39;;;;;;;17.33;7.70;;;11.10;99.90;;;;;;5115468;28;20048;-77
2022/11/16 02:11:24;;;;;;;16.83;8.48;;;11.10;99.90;;;;;;5085245;28;20122;-78
2022/11/16 02:14:03;;;;;;;12.45;6.20;;;11.10;99.90;;;;;;5116399;28;20540;-73
2022/11/16 02:16:40;;;;;;;13.85;7.00;;;11.10;99.90;;;;;;5115958;28;20051;-74
2022/11/16 02:19:35;;;;;;;16.60;7.68;;;11.10;99.90;;;;;;5117172;27;20047;-76
2022/11/16 02:22:04;;;;;;;12.05;6.93;;;11.10;99.90;;;;;;5116979;28;20123;-74
2022/11/16 02:24:55;;;;;;;14.95;7.40;;;11.20;99.90;;;;;;5118563;27;20095;-74
2022/11/16 02:27:24;;;;;;;14.45;6.85;;;11.10;99.90;;;;;;5118507;27;20521;-74
2022/11/16 02:29:52;;;;;;;17.63;6.93;;;11.10;99.90;;;;;;5137182;27;20046;-76
2022/11/16 02:32:41;;;;;;;14.13;7.22;;;11.10;99.90;;;;;;5137726;27;20482;-75
2022/11/16 02:35:22;;;;;;;17.65;7.95;;;11.10;99.90;;;;;;5118230;27;20047;-75
2022/11/16 02:38:01;;;;;;;14.75;6.63;;;11.10;99.90;;;;;;5137672;27;20410;-76
2022/11/16 02:40:30;;;;;;;15.40;7.55;;;11.10;99.90;;;;;;5137107;27;20043;-75
2022/11/16 02:43:26;;;;;;;12.57;6.45;;;11.20;99.90;;;;;;5136820;27;20069;-77
2022/11/16 02:45:54;;;;;;;;;;;11.20;99.90;;;;;;5127382;27;20061;-75
2022/11/16 02:48:25;;;;;;;14.32;7.00;;;11.30;99.90;;;;;;5118116;27;19919;-75
2022/11/16 02:50:52;;;;;;;13.32;5.53;;;11.20;99.90;;;;;;5136412;27;20126;-75
2022/11/16 02:53:23;;;;;;;13.52;6.38;;;11.20;99.90;;;;;;5118214;27;20043;-73
2022/11/16 02:55:49;;;;;;;13.70;7.43;;;11.20;99.90;;;;;;5136353;27;20039;-75
2022/11/16 02:58:21;;;;;;;13.10;6.85;;;11.10;99.90;;;;;;5136291;27;20418;-79
2022/11/16 03:00:50;;;;;;;14.57;7.13;;;11.20;99.90;;;;;;5118144;27;20093;-76
2022/11/16 03:03:31;;;;;;;15.60;7.57;;;11.10;99.90;;;;;;5136172;27;20047;-78
2022/11/16 03:06:15;;;;;;;15.02;7.38;;;11.10;99.90;;;;;;5117591;27;20043;-74
2022/11/16 03:08:59;;;;;;;17.13;7.47;;;11.10;99.90;;;;;;5118115;27;20047;-73
2022/11/16 03:14:18;;;;;;;13.13;6.65;;;11.10;99.90;;;;;;5136595;27;20062;-75
2022/11/16 03:16:51;;;;;;;16.10;7.22;;;11.10;99.90;;;;;;5136362;27;20460;-75
2022/11/16 03:19:24;;;;;;;14.55;6.97;;;11.10;99.90;;;;;;5117281;27;20058;-79
2022/11/16 03:21:53;;;;;;;16.05;7.25;;;11.10;99.90;;;;;;5135983;27;20046;-76
2022/11/16 03:24:20;;;;;;;16.08;7.75;;;11.10;99.90;;;;;;5117501;27;20047;-77
2022/11/16 03:26:53;;;;;;;17.63;8.00;;;11.10;99.90;;;;;;5118101;27;20512;-75
2022/11/16 03:29:28;;;;;;;17.15;7.57;;;11.10;99.90;;;;;;5135906;27;20065;-75
2022/11/16 03:32:00;;;;;;;16.50;8.18;;;11.10;99.90;;;;;;5117640;27;20059;-73
2022/11/16 03:34:30;;;;;;;16.35;7.82;;;11.00;99.90;;;;;;5117232;27;20103;-74
2022/11/16 03:36:58;;;;;;;15.90;7.97;;;11.00;99.90;;;;;;5135901;27;20046;-74
2022/11/16 03:39:37;;;;;;;16.13;7.82;;;11.00;99.90;;;;;;5135582;27;20047;-73
2022/11/16 03:42:07;;;;;;;16.23;8.38;;;11.00;99.90;;;;;;5117337;27;20096;-74
2022/11/16 03:44:34;;;;;;;14.77;7.50;;;11.00;99.90;;;;;;5118163;27;20375;-74
2022/11/16 03:47:00;;;;;;;18.52;7.80;;;11.00;99.90;;;;;;5135666;27;20112;-73
2022/11/16 03:49:30;;;;;;;14.93;7.93;;;11.00;99.90;;;;;;5135295;27;20126;-73
2022/11/16 03:51:56;;;;;;;14.60;7.93;;;11.10;99.90;;;;;;5100420;27;20047;-74
2022/11/16 03:54:22;;;;;;;14.60;7.75;;;11.00;99.90;;;;;;5134556;27;20479;-74
2022/11/16 03:56:48;;;;;;;17.67;8.75;;;11.00;99.90;;;;;;5135038;27;20134;-76
2022/11/16 03:59:14;;;;;;;18.83;9.20;;;11.00;99.90;;;;;;5135317;27;20076;-73
2022/11/16 04:01:39;;;;;;;17.20;8.98;;;11.00;99.90;;;;;;5133896;27;20044;-73
2022/11/16 04:04:05;;;;;;;15.38;8.18;;;11.00;99.90;;;;;;5135360;27;20043;-73
2022/11/16 04:26:11;;;;;;;16.80;8.30;;;11.00;99.90;;;;;;5107262;27;20305;-75
2022/11/16 04:28:38;;;;;;;15.40;7.93;;;11.00;99.90;;;;;;5116376;27;20055;-73
2022/11/16 04:39:20;;;;;;;16.65;9.18;;;11.00;99.90;;;;;;5135402;27;20066;-72
2022/11/16 04:47:18;;;;;;;16.95;9.20;;;10.90;99.90;;;;;;5116094;27;20054;-74
2022/11/16 04:49:44;;;;;;;17.75;9.55;;;10.90;99.90;;;;;;5115829;27;20046;-72
2022/11/16 04:52:10;;;;;;;13.63;7.05;;;10.90;99.90;;;;;;5116052;27;20053;-75
2022/11/16 04:54:36;;;;;;;16.98;9.25;;;11.00;99.90;;;;;;5115976;27;20039;-75
2022/11/16 04:57:02;;;;;;;17.92;9.07;;;11.00;99.90;;;;;;5134750;27;20110;-74
2022/11/16 04:59:27;;;;;;;18.15;9.52;;;10.90;99.90;;;;;;5134364;27;20055;-73
2022/11/16 05:02:08;;;;;;;18.23;9.23;;;10.90;99.90;;;;;;5115790;27;20078;-73
2022/11/16 05:04:39;;;;;;;17.88;9.55;;;10.90;99.90;;;;;;5101887;27;20126;-74
2022/11/16 05:07:11;;;;;;;18.02;9.55;;;10.80;99.90;;;;;;5115472;28;20122;-74
2022/11/16 05:09:47;;;;;;;19.00;10.32;;;10.80;99.90;;;;;;5134427;27;20047;-73
2022/11/16 05:12:22;;;;;;;20.33;10.13;;;10.80;99.90;;;;;;5116085;27;20046;-73
2022/11/16 05:14:48;;;;;;;19.17;9.45;;;10.80;99.90;;;;;;5134310;27;20125;-74
2022/11/16 05:17:15;;;;;;;17.35;9.95;;;10.80;99.90;;;;;;5117240;27;20093;-74
2022/11/16 05:22:25;;;;;;;21.67;9.65;;;10.80;99.90;;;;;;5138275;27;20387;-74
2022/11/16 05:24:51;;;;;;;19.88;10.02;;;10.90;99.90;;;;;;5103561;28;20073;-73
2022/11/16 05:27:19;;;;;;;21.75;10.30;;;10.80;99.90;;;;;;5139703;28;20051;-74
2022/11/16 05:29:45;;;;;;;21.05;10.55;;;10.80;99.90;;;;;;5116892;28;20067;-72
2022/11/16 05:32:12;;;;;;;20.48;10.25;;;10.80;99.90;;;;;;5137071;28;20111;-73
2022/11/16 05:34:38;;;;;;;20.52;11.48;;;10.80;99.90;;;;;;5138256;28;20039;-75
2022/11/16 05:37:04;;;;;;;21.15;10.27;;;10.80;99.90;;;;;;5137792;28;20039;-76
2022/11/16 05:39:30;;;;;;;19.88;10.30;;;10.80;99.90;;;;;;5138651;28;20043;-75
2022/11/16 05:41:56;;;;;;;20.75;10.73;;;10.80;99.90;;;;;;5138856;28;20070;-74
2022/11/16 05:44:23;;;;;;;24.33;12.05;;;10.80;99.90;;;;;;5121074;28;20039;-75
2022/11/16 05:46:48;;;;;;;21.38;11.00;;;10.80;99.90;;;;;;5137159;28;20127;-74
2022/11/16 05:49:14;;;;;;;22.98;11.43;;;10.80;99.90;;;;;;5135261;28;20090;-75
2022/11/16 05:51:42;;;;;;;25.45;11.75;;;10.70;99.90;;;;;;5134889;28;20038;-75
2022/11/16 05:54:11;;;;;;;23.52;11.80;;;10.70;99.90;;;;;;5114677;28;20473;-75
2022/11/16 05:56:37;;;;;;;24.33;12.27;;;10.80;99.90;;;;;;5098960;28;20043;-76
2022/11/16 05:59:02;;;;;;;25.67;12.52;;;10.80;99.90;;;;;;5115374;28;20040;-78
2022/11/16 06:01:29;;;;;;;21.80;11.55;;;10.80;99.90;;;;;;5114939;28;20501;-77
2022/11/16 06:03:54;;;;;;;26.30;12.18;;;10.70;99.90;;;;;;5114997;28;20039;-76
2022/11/16 06:06:20;;;;;;;27.13;12.57;;;10.80;99.90;;;;;;5134440;28;20138;-76
2022/11/16 06:08:46;;;;;;;23.73;12.27;;;10.80;99.90;;;;;;5133211;28;20044;-76
2022/11/16 06:11:12;;;;;;;26.88;12.27;;;10.70;99.90;;;;;;5115578;28;20475;-76
2022/11/16 06:13:38;;;;;;;28.48;14.45;;;10.80;99.90;;;;;;5114524;28;20031;-75
2022/11/16 06:16:04;;;;;;;23.55;11.55;;;10.80;99.90;;;;;;5114801;28;20043;-76
2022/11/16 06:18:31;;;;;;;25.77;11.63;;;10.80;99.90;;;;;;5134796;27;20058;-75
2022/11/16 06:20:57;;;;;;;22.02;11.50;;;10.80;99.90;;;;;;5136859;27;20047;-76
2022/11/16 06:23:23;;;;;;;23.83;11.77;;;10.80;99.90;;;;;;5137176;27;20039;-74
2022/11/16 06:25:53;;;;;;;22.83;10.70;;;10.80;99.90;;;;;;5118493;27;20130;-74
2022/11/16 06:28:19;;;;;;;23.50;11.25;;;10.80;99.90;;;;;;5136814;27;20498;-74
2022/11/16 06:30:46;;;;;;;19.83;10.27;;;10.70;99.90;;;;;;5101817;27;20043;-75
2022/11/16 06:33:12;;;;;;;18.15;9.18;;;10.60;99.90;;;;;;5119528;27;20132;-75
2022/11/16 06:35:38;;;;;;;15.02;8.00;;;10.60;99.90;;;;;;5136643;27;20051;-76
2022/11/16 06:38:03;;;;;;;13.48;6.50;;;10.60;99.90;;;;;;5136847;27;20074;-75
2022/11/16 06:40:31;;;;;;;11.85;6.10;;;10.60;99.90;;;;;;5118117;27;20477;-75
2022/11/16 06:42:57;;;;;;;12.38;5.55;;;10.50;99.90;;;;;;5118195;27;20051;-74
2022/11/16 06:45:23;;;;;;;14.30;5.70;;;10.50;99.90;;;;;;5136689;27;20107;-74
2022/11/16 06:47:48;;;;;;;10.52;5.40;;;10.50;99.90;;;;;;5136681;27;20051;-73
2022/11/16 06:50:18;;;;;;;11.35;5.60;;;10.50;99.90;;;;;;5101073;27;20089;-75
2022/11/16 06:52:45;;;;;;;11.88;5.75;;;10.50;99.90;;;;;;5119109;27;20059;-76
2022/11/16 06:55:11;;;;;;;13.10;5.95;;;10.50;99.90;;;;;;5118236;27;20498;-75
2022/11/16 06:57:37;;;;;;;12.75;6.20;;;10.40;99.90;;;;;;5136434;27;20047;-76
2022/11/16 07:00:03;;;;;;;13.15;5.88;;;10.50;99.90;;;;;;5084489;27;20074;-75
2022/11/16 07:02:29;;;;;;;10.20;5.03;;;10.40;99.90;;;;;;5118072;27;20081;-74
2022/11/16 07:04:54;;;;;;;11.63;6.00;;;10.40;99.90;;;;;;5136852;27;20083;-73
2022/11/16 07:07:20;;;;;;;11.40;5.65;;;10.40;99.90;;;;;;5136133;27;20054;-73
2022/11/16 07:09:46;;;;;;;11.00;5.63;;;10.40;99.90;;;;;;5135675;27;20088;-74
2022/11/16 07:12:12;;;;;;;12.10;5.90;;;10.40;99.90;;;;;;5134609;27;20121;-73
2022/11/16 07:14:37;;;;;;;10.40;5.47;;;10.40;99.90;;;;;;5136271;27;20043;-74
2022/11/16 07:17:03;;;;;;;12.93;5.60;;;10.40;99.90;;;;;;5117623;27;20432;-74
2022/11/16 07:19:29;;;;;;;11.27;5.45;;;10.40;99.90;;;;;;5100868;27;20050;-74
2022/11/16 07:21:54;;;;;;;11.48;4.88;;;10.40;99.90;;;;;;5134667;27;20115;-74
2022/11/16 07:24:20;;;;;;;8.55;4.63;;;10.30;99.90;;;;;;5135416;27;20046;-74
2022/11/16 07:26:46;;;;;;;8.40;4.22;;;10.30;99.90;;;;;;5135647;27;20062;-76
2022/11/16 07:29:12;;;;;;;11.25;4.55;;;10.30;99.90;;;;;;5135888;27;20086;-73
2022/11/16 07:31:38;;;;;;;9.63;4.03;;;10.30;99.90;;;;;;5116850;27;20487;-75
2022/11/16 07:34:04;;;;;;;10.70;4.50;;;10.30;99.90;;;;;;5117230;27;20062;-73
2022/11/16 07:36:30;;;;;;;8.05;4.32;;;10.30;99.90;;;;;;5100334;27;20047;-72
2022/11/16 07:38:56;;;;;;;12.23;4.43;;;10.30;99.90;;;;;;5135720;27;20479;-73
2022/11/16 07:41:22;;;;;;;9.27;4.75;;;10.30;99.90;;;;;;5135979;27;20096;-73
2022/11/16 07:43:48;;;;;;;10.95;4.90;;;10.30;99.90;;;;;;5117344;27;20049;-74
2022/11/16 07:46:16;;;;;;;8.23;4.57;;;10.30;99.90;;;;;;5135379;27;20039;-72
2022/11/16 07:48:42;;;;;;;11.95;5.38;;;10.30;99.90;;;;;;5135833;27;20039;-73
2022/11/16 07:51:10;;;;;;;16.75;5.78;;;10.30;99.90;;;;;;5135397;27;20046;-73
2022/11/16 07:53:36;;;;;;;10.77;5.30;;;10.30;99.90;;;;;;5117205;27;20122;-73
2022/11/16 07:56:03;;;;;;;10.88;5.35;;;10.40;99.90;;;;;;5116951;27;20131;-72
2022/11/16 07:58:32;;;;;;;9.43;5.13;;;10.40;99.90;;;;;;5117317;27;20055;-72
2022/11/16 08:01:15;;;;;;;10.93;5.78;;;10.40;99.90;;;;;;5117790;27;20043;-73
2022/11/16 08:03:42;;;;;;;12.52;5.22;;;10.40;99.90;;;;;;5136120;27;20087;-73
2022/11/16 08:06:15;;;;;;;13.00;5.00;;;10.40;99.90;;;;;;5135215;27;20039;-72
2022/11/16 08:08:41;;;;;;;11.15;4.80;;;10.40;99.90;;;;;;5117688;27;20051;-74
2022/11/16 08:11:09;;;;;;;11.48;5.70;;;10.40;99.90;;;;;;5117102;27;20086;-74
2022/11/16 08:13:37;;;;;;;11.82;6.82;;;10.40;99.90;;;;;;5099822;27;20062;-72
2022/11/16 08:16:08;;;;;;;17.17;10.07;;;10.50;99.90;;;;;;5135829;27;20092;-72
2022/11/16 08:18:35;;;;;;;16.00;8.98;;;10.50;99.90;;;;;;5134890;27;20547;-73
2022/11/16 08:21:01;;;;;;;;;;;10.50;99.90;;;;;;5116838;27;20047;-72
2022/11/16 08:23:31;;;;;;;12.60;6.83;;;10.50;99.90;;;;;;5134722;27;20374;-73
2022/11/16 08:25:58;;;;;;;17.02;8.68;;;10.50;99.90;;;;;;5135048;27;20112;-72
2022/11/16 08:28:25;;;;;;;18.10;9.10;;;10.60;99.90;;;;;;5135064;27;20061;-71
2022/11/16 08:30:51;;;;;;;17.85;9.57;;;10.70;99.90;;;;;;5116767;27;20055;-72
2022/11/16 08:33:18;;;;;;;18.38;9.85;;;10.70;99.90;;;;;;5134694;27;20054;-72
2022/11/16 08:35:44;;;;;;;19.83;10.70;;;10.70;99.90;;;;;;5134620;27;20055;-74
2022/11/16 08:38:10;;;;;;;20.65;10.45;;;10.70;99.90;;;;;;5134555;27;20089;-74
2022/11/16 08:40:36;;;;;;;25.55;11.30;;;10.80;99.90;;;;;;5115842;27;20046;-72
2022/11/16 08:43:02;;;;;;;23.38;11.07;;;10.80;99.90;;;;;;5134464;27;20114;-73
2022/11/16 08:45:27;;;;;;;22.58;11.35;;;10.90;99.90;;;;;;5134573;27;20050;-72
2022/11/16 08:47:53;;;;;;;23.35;10.95;;;11.00;99.90;;;;;;5134394;27;20043;-74
2022/11/16 08:50:19;;;;;;;25.08;11.80;;;11.10;99.90;;;;;;5116041;27;20073;-72
2022/11/16 08:52:44;;;;;;;23.58;10.80;;;11.10;99.90;;;;;;5099687;27;20046;-72
2022/11/16 08:55:12;;;;;;;21.77;11.20;;;11.20;99.90;;;;;;5134133;27;20055;-73
2022/11/16 08:57:39;;;;;;;28.25;11.13;;;11.20;99.90;;;;;;5116880;27;20039;-73
2022/11/16 09:00:06;;;;;;;22.75;10.50;;;11.20;99.90;;;;;;5133992;27;20059;-73
2022/11/16 09:02:31;;;;;;;;;;;11.30;99.90;;;;;;5116501;27;20105;-72
2022/11/16 09:04:57;;;;;;;20.60;10.20;;;11.30;99.90;;;;;;5133057;27;19919;-74
2022/11/16 09:07:23;;;;;;;22.55;10.65;;;11.30;99.90;;;;;;5116126;28;20082;-74
2022/11/16 09:09:49;;;;;;;21.67;9.77;;;11.40;99.90;;;;;;5134567;27;20118;-73
2022/11/16 09:12:14;;;;;;;20.40;10.40;;;11.40;99.90;;;;;;5134397;27;20462;-73
2022/11/16 09:14:40;;;;;;;19.85;10.30;;;11.40;99.90;;;;;;5115301;27;20092;-73
2022/11/16 09:17:06;;;;;;;22.73;10.43;;;11.50;99.90;;;;;;5116320;27;20070;-74
2022/11/16 09:19:31;;;;;;;25.88;11.35;;;11.50;99.90;;;;;;5133810;27;20563;-74
2022/11/16 09:21:57;;;;;;;23.65;11.75;;;11.50;99.90;;;;;;5115411;28;20085;-80
2022/11/16 09:24:23;;;;;;;22.58;10.60;;;11.50;99.90;;;;;;5115641;28;20043;-74
2022/11/16 09:26:49;;;;;;;24.58;10.80;;;11.50;99.90;;;;;;5133993;27;20357;-74
2022/11/16 09:29:15;;;;;;;25.23;10.63;;;11.50;99.90;;;;;;5098338;28;20463;-75
2022/11/16 09:31:41;;;;;;;26.17;10.50;;;11.50;99.90;;;;;;5134279;28;20071;-75
2022/11/16 09:34:07;;;;;;;21.80;11.23;;;11.50;99.90;;;;;;5133573;28;20035;-73
2022/11/16 09:36:33;;;;;;;22.65;10.48;;;11.70;99.90;;;;;;5133736;28;20035;-75
2022/11/16 09:38:59;;;;;;;19.13;10.10;;;11.60;99.90;;;;;;5115648;28;20500;-79
2022/11/16 09:41:31;;;;;;;19.52;9.35;;;11.70;99.90;;;;;;5134265;28;20044;-75
2022/11/16 09:44:22;;;;;;;22.25;9.60;;;11.70;99.90;;;;;;5133821;28;20360;-73
2022/11/16 09:46:55;;;;;;;21.45;9.15;;;11.70;99.90;;;;;;5118551;28;20047;-74
2022/11/16 09:49:35;;;;;;;23.05;9.43;;;11.60;99.90;;;;;;5134169;28;20381;-74
2022/11/16 09:52:09;;;;;;;20.27;8.63;;;11.60;99.90;;;;;;5133712;27;20091;-81
2022/11/16 09:54:39;;;;;;;18.55;8.27;;;11.60;99.90;;;;;;5136889;27;20047;-75
2022/11/16 09:57:10;;;;;;;18.13;8.20;;;11.70;99.90;;;;;;5119285;27;20055;-76
2022/11/16 09:59:53;;;;;;;19.88;7.68;;;11.90;99.90;;;;;;5137649;27;20532;-75
2022/11/16 10:02:43;;;;;;;19.60;7.18;;;11.70;99.90;;;;;;5119635;27;20055;-73
2022/11/16 10:05:26;;;;;;;12.95;5.72;;;11.60;99.90;;;;;;5138244;27;20379;-73
2022/11/16 10:08:22;;;;;;;13.98;5.53;;;11.50;99.90;;;;;;5137718;27;20125;-76
2022/11/16 10:11:11;;;;;;;10.02;3.88;;;11.50;99.90;;;;;;5123261;27;20439;-71
2022/11/16 10:13:46;;;;;;;11.68;5.90;;;11.50;99.90;;;;;;5137322;27;20047;-73
2022/11/16 10:16:35;;;;;;;12.57;5.65;;;11.40;99.90;;;;;;5137571;27;20379;-75
2022/11/16 10:19:07;;;;;;;14.75;5.47;;;11.50;99.90;;;;;;5118777;27;20078;-72
2022/11/16 10:21:48;;;;;;;15.63;5.43;;;11.60;99.90;;;;;;5137105;27;20047;-73
2022/11/16 10:24:39;;;;;;;13.48;5.45;;;11.60;99.90;;;;;;5136818;27;20482;-73
2022/11/16 10:27:23;;;;;;;10.45;5.88;;;11.50;99.90;;;;;;5118488;27;20061;-79
2022/11/16 10:30:07;;;;;;;15.95;5.03;;;11.30;99.90;;;;;;5137656;27;20151;-72
2022/11/16 10:33:00;;;;;;;13.40;5.15;;;11.20;99.90;;;;;;5119752;27;20047;-71
2022/11/16 10:35:53;;;;;;;13.70;4.82;;;11.10;99.90;;;;;;5136770;27;20050;-75
2022/11/16 10:38:27;;;;;;;16.02;4.25;;;11.10;99.90;;;;;;5126314;27;20207;-73
2022/11/16 10:41:02;;;;;;;13.38;4.85;;;11.00;99.90;;;;;;5101915;27;20108;-73
2022/11/16 10:43:31;;;;;;;13.80;4.22;;;11.00;99.90;;;;;;5137007;27;20043;-73
2022/11/16 10:46:11;;;;;;;14.48;4.10;;;11.10;99.90;;;;;;5136351;27;20498;-72
2022/11/16 10:49:02;;;;;;;15.77;4.78;;;11.10;99.90;;;;;;5137489;27;20046;-74
2022/11/16 10:51:27;;;;;;;12.95;4.18;;;11.20;99.90;;;;;;5118910;27;20042;-72
2022/11/16 10:53:54;;;;;;;12.05;3.75;;;11.20;99.90;;;;;;5135177;27;20047;-72
2022/11/16 10:56:26;;;;;;;11.38;3.35;;;11.30;99.90;;;;;;5137216;27;20163;-74
2022/11/16 10:58:56;;;;;;;14.23;4.28;;;11.40;99.90;;;;;;5118288;27;20043;-73
2022/11/16 11:01:35;;;;;;;11.10;3.67;;;11.70;99.90;;;;;;5136271;27;20039;-73
2022/11/16 11:04:18;;;;;;;15.20;3.45;;;;;;;;;;5136054;27;20074;-73
2022/11/16 11:06:46;;;;;;;12.98;3.42;;;11.80;99.90;;;;;;5136657;27;20111;-73
2022/11/16 11:09:33;;;;;;;10.63;2.88;;;11.70;99.90;;;;;;5136298;27;20051;-75
2022/11/16 11:15:11;;;;;;;14.35;3.20;;;11.70;99.90;;;;;;5118944;27;20055;-73
2022/11/16 11:17:43;;;;;;;9.82;4.25;;;11.70;99.90;;;;;;5136151;27;20130;-73
2022/11/16 11:20:15;;;;;;;15.15;3.53;;;11.70;99.90;;;;;;5136096;27;20463;-73
2022/11/16 11:22:56;;;;;;;14.25;3.88;;;11.80;99.90;;;;;;5136036;27;20043;-73
2022/11/16 11:25:34;;;;;;;12.25;3.78;;;11.80;99.90;;;;;;5121739;27;20088;-73
2022/11/16 11:28:17;;;;;;;10.82;4.20;;;11.80;99.90;;;;;;5143954;27;20090;-74
2022/11/16 11:30:58;;;;;;;13.77;4.63;;;11.80;99.90;;;;;;5126797;27;20059;-71
2022/11/16 11:33:27;;;;;;;14.77;4.22;;;11.80;99.90;;;;;;5143912;27;20058;-74
2022/11/16 11:36:18;;;;;;;12.48;3.80;;;11.80;99.90;;;;;;5123636;27;20051;-73
2022/11/16 11:39:27;;;;;;;11.70;2.78;;;11.80;99.90;;;;;;5145271;27;20053;-76
2022/11/16 11:42:19;;;;;;;10.38;2.60;;;11.80;99.90;;;;;;5127282;27;20127;-74
2022/11/16 11:45:01;;;;;;;14.82;2.45;;;11.70;99.90;;;;;;5119789;27;20368;-76
2022/11/16 11:47:55;;;;;;;14.80;2.30;;;11.80;99.90;;;;;;5136335;27;20143;-74
2022/11/16 11:50:50;;;;;;;14.30;2.42;;;11.80;99.90;;;;;;5118094;27;20071;-74
2022/11/16 11:53:44;;;;;;;15.68;2.60;;;11.70;99.90;;;;;;5095501;27;20395;-72
2022/11/16 11:56:11;;;;;;;11.07;2.22;;;11.70;99.90;;;;;;5135345;27;20050;-75
2022/11/16 11:58:39;;;;;;;11.85;2.30;;;11.60;99.90;;;;;;5135837;27;20043;-73
2022/11/16 12:01:33;;;;;;;11.07;2.53;;;11.60;99.90;;;;;;5135648;27;20161;-72
2022/11/16 12:04:34;;;;;;;13.52;2.70;;;11.60;99.90;;;;;;5135210;27;20047;-74
2022/11/16 12:07:21;;;;;;;11.27;2.95;;;11.60;99.90;;;;;;5135351;27;20090;-75
2022/11/16 12:09:58;;;;;;;15.52;2.28;;;11.60;99.90;;;;;;5117556;27;20387;-75
2022/11/16 12:12:45;;;;;;;12.43;2.38;;;11.60;99.90;;;;;;5100377;27;20047;-76
2022/11/16 12:15:35;;;;;;;8.73;2.28;;;11.70;99.90;;;;;;5134520;27;20588;-73
2022/11/16 12:18:31;;;;;;;16.40;2.83;;;11.70;99.90;;;;;;5117077;27;20440;-74
2022/11/16 12:21:06;;;;;;;12.77;3.00;;;11.70;99.90;;;;;;5117085;27;20352;-72
2022/11/16 12:23:38;;;;;;;12.88;2.22;;;11.80;99.90;;;;;;5134949;27;20490;-74
2022/11/16 12:26:15;;;;;;;20.08;3.30;;;11.80;99.90;;;;;;5135276;27;20067;-75
2022/11/16 12:29:07;;;;;;;9.00;2.50;;;11.90;99.90;;;;;;5116285;27;20115;-75
2022/11/16 12:31:40;;;;;;;12.35;2.50;;;11.90;99.90;;;;;;5135377;27;20039;-76
2022/11/16 12:34:31;;;;;;;17.15;2.97;;;11.90;99.90;;;;;;5100071;27;20079;-74
2022/11/16 12:37:06;;;;;;;9.20;1.80;;;11.90;99.90;;;;;;5117534;27;20090;-74
2022/11/16 12:39:32;;;;;;;10.10;1.95;;;11.80;99.90;;;;;;5117894;27;20075;-76
2022/11/16 12:42:14;;;;;;;7.30;2.13;;;11.80;99.90;;;;;;5134684;27;20097;-72
2022/11/16 12:45:22;;;;;;;13.10;2.05;;;11.80;99.90;;;;;;5134580;27;20050;-75
2022/11/16 12:48:01;;;;;;;11.45;2.10;;;11.70;99.90;;;;;;5136806;27;20372;-75
2022/11/16 12:50:45;;;;;;;11.05;1.90;;;11.70;99.90;;;;;;5122947;27;20049;-75
2022/11/16 12:53:25;;;;;;;10.50;2.05;;;11.70;99.90;;;;;;5139111;27;20047;-74
2022/11/16 12:56:08;;;;;;;15.73;2.20;;;11.70;99.90;;;;;;5139556;27;20055;-75
2022/11/16 12:58:54;;;;;;;9.73;1.60;;;11.60;99.90;;;;;;5118658;27;20047;-74
2022/11/16 13:02:02;;;;;;;11.25;1.45;;;11.60;99.90;;;;;;5139184;27;20401;-80
2022/11/16 13:04:34;;;;;;;13.60;2.22;;;11.70;99.90;;;;;;5102319;27;20055;-75
2022/11/16 13:07:11;;;;;;;13.40;2.58;;;11.70;99.90;;;;;;5117525;27;20486;-74
2022/11/16 13:09:48;;;;;;;15.10;1.30;;;11.70;99.90;;;;;;5134249;27;20094;-74
2022/11/16 13:12:22;;;;;;;16.65;1.50;;;11.80;99.90;;;;;;5134700;27;20039;-75
2022/11/16 13:14:50;;;;;;;14.88;1.50;;;11.80;99.90;;;;;;5115638;27;20055;-76
2022/11/16 13:17:26;;;;;;;13.82;1.73;;;11.70;99.90;;;;;;5134695;27;20047;-76
2022/11/16 13:20:20;;;;;;;8.00;1.15;;;11.70;99.90;;;;;;5115813;27;20104;-74
2022/11/16 13:23:10;;;;;;;13.05;1.85;;;11.60;99.90;;;;;;5134223;27;20053;-77
2022/11/16 13:26:15;;;;;;;9.80;1.70;;;11.70;99.90;;;;;;5133860;27;20082;-74
2022/11/16 13:28:41;;;;;;;9.88;1.20;;;11.60;99.90;;;;;;5128699;27;20074;-77
2022/11/16 13:31:18;;;;;;;13.93;1.77;;;11.60;99.90;;;;;;5133694;28;20475;-76
2022/11/16 13:33:48;;;;;;;11.88;1.98;;;11.60;99.90;;;;;;5133589;28;20043;-75
2022/11/16 13:36:38;;;;;;;16.52;1.77;;;11.60;99.90;;;;;;5115665;28;20096;-75
2022/11/16 13:39:06;;;;;;;11.60;1.63;;;11.50;99.90;;;;;;5133753;28;20483;-75
2022/11/16 13:41:43;;;;;;;13.70;1.38;;;11.50;99.90;;;;;;5115114;28;20113;-76
2022/11/16 13:44:19;;;;;;;11.40;1.40;;;11.50;99.90;;;;;;5133463;28;20047;-76
2022/11/16 13:47:03;;;;;;;12.50;1.60;;;11.50;99.90;;;;;;5133495;28;20423;-76